sensor_id;sensor_type;location;lat;lon;timestamp;pressure;altitude;pressure_sealevel;temperature;humidity
75940;BME280;75809;44.872;20.642;2024-02-15T00:00:36;101409.44;;;5.37;61.44
75940;BME280;75809;44.872;20.642;2024-02-15T00:03:03;101404.97;;;5.42;60.99
75940;BME280;75809;44.872;20.642;2024-02-15T00:05:34;101402.34;;;5.43;60.09
75940;BME280;75809;44.872;20.642;2024-02-15T00:08:03;101401.31;;;5.49;59.87
75940;BME280;75809;44.872;20.642;2024-02-15T00:10:29;101403.78;;;5.57;58.58
75940;BME280;75809;44.872;20.642;2024-02-15T00:12:55;101406.34;;;5.60;58.27
75940;BME280;75809;44.872;20.642;2024-02-15T00:15:20;101408.91;;;5.61;58.34
75940;BME280;75809;44.872;20.642;2024-02-15T00:17:46;101418.50;;;5.62;58.34
75940;BME280;75809;44.872;20.642;2024-02-15T00:20:14;101420.31;;;5.60;58.02
75940;BME280;75809;44.872;20.642;2024-02-15T00:22:40;101420.25;;;5.62;57.90
75940;BME280;75809;44.872;20.642;2024-02-15T00:25:08;101423.81;;;5.59;57.85
75940;BME280;75809;44.872;20.642;2024-02-15T00:27:39;101413.34;;;5.59;57.70
75940;BME280;75809;44.872;20.642;2024-02-15T00:30:05;101408.13;;;5.58;57.32
75940;BME280;75809;44.872;20.642;2024-02-15T00:32:33;101409.09;;;5.54;58.39
75940;BME280;75809;44.872;20.642;2024-02-15T00:34:58;101418.03;;;5.45;58.52
75940;BME280;75809;44.872;20.642;2024-02-15T00:37:24;101415.50;;;5.39;59.21
75940;BME280;75809;44.872;20.642;2024-02-15T00:39:49;101413.25;;;5.22;61.11
75940;BME280;75809;44.872;20.642;2024-02-15T00:42:15;101418.94;;;4.98;62.42
75940;BME280;75809;44.872;20.642;2024-02-15T00:44:41;101413.91;;;4.87;61.73
75940;BME280;75809;44.872;20.642;2024-02-15T00:47:09;101399.22;;;4.78;62.19
75940;BME280;75809;44.872;20.642;2024-02-15T00:49:34;101411.50;;;4.75;63.05
75940;BME280;75809;44.872;20.642;2024-02-15T00:52:01;101403.78;;;4.67;63.41
75940;BME280;75809;44.872;20.642;2024-02-15T00:54:26;101409.88;;;4.68;63.30
75940;BME280;75809;44.872;20.642;2024-02-15T00:56:51;101408.13;;;4.70;63.87
75940;BME280;75809;44.872;20.642;2024-02-15T00:59:17;101408.94;;;4.73;63.81
75940;BME280;75809;44.872;20.642;2024-02-15T01:01:43;101413.19;;;4.77;63.37
75940;BME280;75809;44.872;20.642;2024-02-15T01:04:09;101417.72;;;4.68;64.33
75940;BME280;75809;44.872;20.642;2024-02-15T01:06:34;101408.28;;;4.60;64.39
75940;BME280;75809;44.872;20.642;2024-02-15T01:09:00;101400.69;;;4.47;64.39
75940;BME280;75809;44.872;20.642;2024-02-15T01:11:31;101397.91;;;4.54;64.10
75940;BME280;75809;44.872;20.642;2024-02-15T01:14:01;101404.88;;;4.55;64.12
75940;BME280;75809;44.872;20.642;2024-02-15T01:16:26;101405.75;;;4.54;64.08
75940;BME280;75809;44.872;20.642;2024-02-15T01:18:52;101397.06;;;4.54;63.67
75940;BME280;75809;44.872;20.642;2024-02-15T01:21:17;101404.31;;;4.38;64.25
75940;BME280;75809;44.872;20.642;2024-02-15T01:23:44;101412.53;;;4.15;65.25
75940;BME280;75809;44.872;20.642;2024-02-15T01:26:12;101413.91;;;3.79;66.40
75940;BME280;75809;44.872;20.642;2024-02-15T01:28:39;101407.09;;;3.69;66.79
75940;BME280;75809;44.872;20.642;2024-02-15T01:31:05;101410.91;;;3.43;67.34
75940;BME280;75809;44.872;20.642;2024-02-15T01:33:31;101406.53;;;3.45;68.08
75940;BME280;75809;44.872;20.642;2024-02-15T01:35:57;101410.06;;;3.40;68.11
75940;BME280;75809;44.872;20.642;2024-02-15T01:38:22;101406.53;;;3.45;67.10
75940;BME280;75809;44.872;20.642;2024-02-15T01:40:48;101399.47;;;3.51;67.44
75940;BME280;75809;44.872;20.642;2024-02-15T01:43:14;101402.97;;;3.53;67.40
75940;BME280;75809;44.872;20.642;2024-02-15T01:45:39;101407.31;;;3.54;67.33
75940;BME280;75809;44.872;20.642;2024-02-15T01:48:06;101404.66;;;3.55;66.67
75940;BME280;75809;44.872;20.642;2024-02-15T01:50:32;101401.84;;;3.70;66.85
75940;BME280;75809;44.872;20.642;2024-02-15T01:52:59;101397.38;;;3.78;66.15
75940;BME280;75809;44.872;20.642;2024-02-15T01:55:26;101395.56;;;3.84;65.90
75940;BME280;75809;44.872;20.642;2024-02-15T01:57:52;101396.38;;;3.87;65.16
75940;BME280;75809;44.872;20.642;2024-02-15T02:00:18;101390.19;;;3.93;65.41
75940;BME280;75809;44.872;20.642;2024-02-15T02:02:45;101389.16;;;4.04;64.35
75940;BME280;75809;44.872;20.642;2024-02-15T02:05:11;101389.03;;;4.12;63.95
75940;BME280;75809;44.872;20.642;2024-02-15T02:07:39;101394.13;;;4.20;63.14
75940;BME280;75809;44.872;20.642;2024-02-15T02:10:06;101388.81;;;4.24;62.59
75940;BME280;75809;44.872;20.642;2024-02-15T02:12:32;101400.00;;;4.34;62.63
75940;BME280;75809;44.872;20.642;2024-02-15T02:14:57;101400.75;;;4.42;61.97
75940;BME280;75809;44.872;20.642;2024-02-15T02:17:24;101411.16;;;4.44;62.17
75940;BME280;75809;44.872;20.642;2024-02-15T02:19:49;101410.28;;;4.45;62.05
75940;BME280;75809;44.872;20.642;2024-02-15T02:22:16;101408.53;;;4.45;61.86
75940;BME280;75809;44.872;20.642;2024-02-15T02:25:03;101401.63;;;4.41;61.65
75940;BME280;75809;44.872;20.642;2024-02-15T02:27:32;101407.72;;;4.42;61.56
75940;BME280;75809;44.872;20.642;2024-02-15T02:29:58;101397.25;;;4.42;61.05
75940;BME280;75809;44.872;20.642;2024-02-15T02:32:25;101399.00;;;4.41;61.22
75940;BME280;75809;44.872;20.642;2024-02-15T02:34:51;101399.81;;;4.45;60.92
75940;BME280;75809;44.872;20.642;2024-02-15T02:37:24;101401.56;;;4.44;60.56
75940;BME280;75809;44.872;20.642;2024-02-15T02:39:50;101396.31;;;4.47;61.16
75940;BME280;75809;44.872;20.642;2024-02-15T02:42:16;101396.25;;;4.50;60.64
75940;BME280;75809;44.872;20.642;2024-02-15T02:44:41;101401.44;;;4.52;60.79
75940;BME280;75809;44.872;20.642;2024-02-15T02:47:07;101402.31;;;4.52;60.94
75940;BME280;75809;44.872;20.642;2024-02-15T02:49:35;101400.53;;;4.54;60.57
75940;BME280;75809;44.872;20.642;2024-02-15T02:52:00;101404.78;;;4.61;60.54
75940;BME280;75809;44.872;20.642;2024-02-15T02:54:26;101392.47;;;4.67;60.33
75940;BME280;75809;44.872;20.642;2024-02-15T02:56:51;101398.56;;;4.69;59.80
75940;BME280;75809;44.872;20.642;2024-02-15T02:59:17;101397.75;;;4.63;60.51
75940;BME280;75809;44.872;20.642;2024-02-15T03:01:42;101390.72;;;4.65;60.54
75940;BME280;75809;44.872;20.642;2024-02-15T03:04:08;101397.00;;;4.58;60.79
75940;BME280;75809;44.872;20.642;2024-02-15T03:06:34;101390.22;;;4.45;60.88
75940;BME280;75809;44.872;20.642;2024-02-15T03:08:59;101407.88;;;4.32;62.65
75940;BME280;75809;44.872;20.642;2024-02-15T03:11:25;101396.66;;;4.26;63.09
75940;BME280;75809;44.872;20.642;2024-02-15T03:13:50;101405.44;;;4.22;62.67
75940;BME280;75809;44.872;20.642;2024-02-15T03:16:16;101399.22;;;4.29;62.78
75940;BME280;75809;44.872;20.642;2024-02-15T03:18:42;101395.63;;;4.36;61.70
75940;BME280;75809;44.872;20.642;2024-02-15T03:21:08;101398.97;;;4.44;61.62
75940;BME280;75809;44.872;20.642;2024-02-15T03:23:36;101402.25;;;4.55;61.84
75940;BME280;75809;44.872;20.642;2024-02-15T03:26:02;101397.72;;;4.65;61.24
75940;BME280;75809;44.872;20.642;2024-02-15T03:28:29;101394.19;;;4.68;60.87
75940;BME280;75809;44.872;20.642;2024-02-15T03:30:55;101390.88;;;4.59;60.79
75940;BME280;75809;44.872;20.642;2024-02-15T03:33:21;101391.72;;;4.60;61.22
75940;BME280;75809;44.872;20.642;2024-02-15T03:35:51;101397.91;;;4.54;60.93
75940;BME280;75809;44.872;20.642;2024-02-15T03:38:17;101396.25;;;4.50;61.29
75940;BME280;75809;44.872;20.642;2024-02-15T03:40:42;101397.97;;;4.51;61.23
75940;BME280;75809;44.872;20.642;2024-02-15T03:43:08;101398.03;;;4.48;60.63
75940;BME280;75809;44.872;20.642;2024-02-15T03:45:34;101396.31;;;4.47;61.06
75940;BME280;75809;44.872;20.642;2024-02-15T03:48:00;101396.22;;;4.52;61.12
75940;BME280;75809;44.872;20.642;2024-02-15T03:50:25;101402.25;;;4.55;61.14
75940;BME280;75809;44.872;20.642;2024-02-15T03:52:51;101397.97;;;4.51;61.10
75940;BME280;75809;44.872;20.642;2024-02-15T03:55:16;101405.72;;;4.56;61.15
75940;BME280;75809;44.872;20.642;2024-02-15T03:57:42;101404.91;;;4.54;61.00
75940;BME280;75809;44.872;20.642;2024-02-15T04:00:12;101411.19;;;4.42;61.46
75940;BME280;75809;44.872;20.642;2024-02-15T04:02:40;101416.44;;;4.42;61.87
75940;BME280;75809;44.872;20.642;2024-02-15T04:05:07;101409.44;;;4.43;61.56
75940;BME280;75809;44.872;20.642;2024-02-15T04:07:33;101416.44;;;4.42;61.33
75940;BME280;75809;44.872;20.642;2024-02-15T04:09:58;101416.47;;;4.41;61.14
75940;BME280;75809;44.872;20.642;2024-02-15T04:12:26;101413.84;;;4.41;61.11
75940;BME280;75809;44.872;20.642;2024-02-15T04:14:52;101417.28;;;4.44;61.47
75940;BME280;75809;44.872;20.642;2024-02-15T04:17:18;101410.22;;;4.49;61.37
75940;BME280;75809;44.872;20.642;2024-02-15T04:19:47;101412.78;;;4.52;61.09
75940;BME280;75809;44.872;20.642;2024-02-15T04:22:13;101413.56;;;4.57;61.03
75940;BME280;75809;44.872;20.642;2024-02-15T04:24:42;101416.19;;;4.57;61.02
75940;BME280;75809;44.872;20.642;2024-02-15T04:27:07;101418.75;;;4.60;60.69
75940;BME280;75809;44.872;20.642;2024-02-15T04:29:34;101416.09;;;4.62;60.79
75940;BME280;75809;44.872;20.642;2024-02-15T04:32:00;101424.81;;;4.62;60.85
75940;BME280;75809;44.872;20.642;2024-02-15T04:34:25;101430.81;;;4.69;60.77
75940;BME280;75809;44.872;20.642;2024-02-15T04:36:51;101430.72;;;4.74;60.61
75940;BME280;75809;44.872;20.642;2024-02-15T04:39:21;101434.31;;;4.68;60.51
75940;BME280;75809;44.872;20.642;2024-02-15T04:41:55;101431.09;;;4.52;61.69
75940;BME280;75809;44.872;20.642;2024-02-15T04:44:20;101436.66;;;4.31;62.87
75940;BME280;75809;44.872;20.642;2024-02-15T04:46:47;101438.00;;;4.01;64.71
75940;BME280;75809;44.872;20.642;2024-02-15T04:49:15;101445.06;;;3.93;64.75
75940;BME280;75809;44.872;20.642;2024-02-15T04:51:41;101455.75;;;3.77;65.54
75940;BME280;75809;44.872;20.642;2024-02-15T04:54:07;101455.03;;;3.65;65.86
75940;BME280;75809;44.872;20.642;2024-02-15T04:56:33;101450.78;;;3.56;66.97
75940;BME280;75809;44.872;20.642;2024-02-15T04:58:59;101450.09;;;3.43;66.65
75940;BME280;75809;44.872;20.642;2024-02-15T05:01:24;101451.91;;;3.35;67.39
75940;BME280;75809;44.872;20.642;2024-02-15T05:03:49;101452.16;;;3.14;68.25
75940;BME280;75809;44.872;20.642;2024-02-15T05:06:15;101456.47;;;3.19;67.94
75940;BME280;75809;44.872;20.642;2024-02-15T05:08:41;101446.75;;;3.29;67.80
75940;BME280;75809;44.872;20.642;2024-02-15T05:11:10;101441.50;;;3.34;67.44
75940;BME280;75809;44.872;20.642;2024-02-15T05:13:46;101443.16;;;3.39;67.01
75940;BME280;75809;44.872;20.642;2024-02-15T05:16:12;101432.84;;;3.30;67.33
75940;BME280;75809;44.872;20.642;2024-02-15T05:18:38;101453.81;;;3.23;68.19
75940;BME280;75809;44.872;20.642;2024-02-15T05:21:06;101458.19;;;3.21;67.81
75940;BME280;75809;44.872;20.642;2024-02-15T05:23:38;101448.56;;;3.24;68.02
75940;BME280;75809;44.872;20.642;2024-02-15T05:26:08;101444.22;;;3.25;67.59
75940;BME280;75809;44.872;20.642;2024-02-15T05:28:34;101453.88;;;3.16;67.72
75940;BME280;75809;44.872;20.642;2024-02-15T05:31:12;101456.56;;;3.10;67.94
75940;BME280;75809;44.872;20.642;2024-02-15T05:33:41;101454.00;;;3.03;68.92
75940;BME280;75809;44.872;20.642;2024-02-15T05:36:10;101459.19;;;3.06;68.61
75940;BME280;75809;44.872;20.642;2024-02-15T05:38:36;101459.28;;;3.00;68.33
75940;BME280;75809;44.872;20.642;2024-02-15T05:41:02;101459.34;;;2.92;68.77
75940;BME280;75809;44.872;20.642;2024-02-15T05:43:28;101466.34;;;2.85;68.92
75940;BME280;75809;44.872;20.642;2024-02-15T05:45:53;101461.13;;;2.85;69.18
75940;BME280;75809;44.872;20.642;2024-02-15T05:48:19;101468.16;;;2.80;69.22
75940;BME280;75809;44.872;20.642;2024-02-15T05:50:46;101477.81;;;2.71;70.20
75940;BME280;75809;44.872;20.642;2024-02-15T05:53:12;101469.03;;;2.76;70.04
75940;BME280;75809;44.872;20.642;2024-02-15T05:55:37;101469.84;;;2.87;69.37
75940;BME280;75809;44.872;20.642;2024-02-15T05:58:06;101479.34;;;2.92;69.51
75940;BME280;75809;44.872;20.642;2024-02-15T06:00:34;101480.19;;;2.94;69.46
75940;BME280;75809;44.872;20.642;2024-02-15T06:03:00;101487.19;;;2.92;70.02
75940;BME280;75809;44.872;20.642;2024-02-15T06:05:28;101481.09;;;2.93;69.39
75940;BME280;75809;44.872;20.642;2024-02-15T06:07:53;101487.09;;;2.98;69.65
75940;BME280;75809;44.872;20.642;2024-02-15T06:10:19;101484.50;;;2.99;69.34
75940;BME280;75809;44.872;20.642;2024-02-15T06:12:44;101482.78;;;2.97;69.04
75940;BME280;75809;44.872;20.642;2024-02-15T06:15:10;101484.59;;;2.88;69.42
75940;BME280;75809;44.872;20.642;2024-02-15T06:17:41;101487.19;;;2.92;69.31
75940;BME280;75809;44.872;20.642;2024-02-15T06:20:11;101486.25;;;2.97;69.52
75940;BME280;75809;44.872;20.642;2024-02-15T06:22:37;101490.59;;;3.00;68.77
75940;BME280;75809;44.872;20.642;2024-02-15T06:25:03;101488.88;;;2.96;68.95
75940;BME280;75809;44.872;20.642;2024-02-15T06:27:29;101486.34;;;2.88;68.97
75940;BME280;75809;44.872;20.642;2024-02-15T06:29:55;101489.00;;;2.83;68.96
75940;BME280;75809;44.872;20.642;2024-02-15T06:32:40;101495.06;;;2.84;68.58
75940;BME280;75809;44.872;20.642;2024-02-15T06:35:23;101493.38;;;2.81;68.54
75940;BME280;75809;44.872;20.642;2024-02-15T06:38:07;101500.34;;;2.78;68.27
75940;BME280;75809;44.872;20.642;2024-02-15T06:40:51;101501.22;;;2.75;68.63
75940;BME280;75809;44.872;20.642;2024-02-15T06:43:19;101500.38;;;2.73;67.97
75940;BME280;75809;44.872;20.642;2024-02-15T06:45:44;101501.25;;;2.72;67.68
75940;BME280;75809;44.872;20.642;2024-02-15T06:48:15;101497.75;;;2.76;67.66
75940;BME280;75809;44.872;20.642;2024-02-15T06:50:40;101492.47;;;2.82;67.04
75940;BME280;75809;44.872;20.642;2024-02-15T06:53:06;101494.16;;;2.86;67.33
75940;BME280;75809;44.872;20.642;2024-02-15T06:55:32;101501.97;;;2.91;67.14
75940;BME280;75809;44.872;20.642;2024-02-15T06:57:59;101494.94;;;2.98;67.24
75940;BME280;75809;44.872;20.642;2024-02-15T07:00:24;101497.50;;;3.04;66.60
75940;BME280;75809;44.872;20.642;2024-02-15T07:02:50;101495.69;;;3.12;66.44
75940;BME280;75809;44.872;20.642;2024-02-15T07:05:15;101496.47;;;3.18;66.80
75940;BME280;75809;44.872;20.642;2024-02-15T07:07:42;101509.47;;;3.26;66.65
75940;BME280;75809;44.872;20.642;2024-02-15T07:10:09;101497.19;;;3.34;66.33
75940;BME280;75809;44.872;20.642;2024-02-15T07:12:36;101508.44;;;3.42;65.81
75940;BME280;75809;44.872;20.642;2024-02-15T07:15:01;101507.50;;;3.46;66.10
75940;BME280;75809;44.872;20.642;2024-02-15T07:17:28;101513.50;;;3.55;65.76
75940;BME280;75809;44.872;20.642;2024-02-15T07:19:54;101504.72;;;3.60;65.32
75940;BME280;75809;44.872;20.642;2024-02-15T07:22:20;101504.59;;;3.71;65.34
75940;BME280;75809;44.872;20.642;2024-02-15T07:24:47;101501.88;;;3.80;65.20
75940;BME280;75809;44.872;20.642;2024-02-15T07:27:13;101508.72;;;3.89;65.39
75940;BME280;75809;44.872;20.642;2024-02-15T07:29:38;101500.81;;;3.96;64.83
75940;BME280;75809;44.872;20.642;2024-02-15T07:32:04;101493.72;;;4.04;65.13
75940;BME280;75809;44.872;20.642;2024-02-15T07:34:30;101496.19;;;4.14;64.55
75940;BME280;75809;44.872;20.642;2024-02-15T07:36:56;101491.72;;;4.22;64.50
75940;BME280;75809;44.872;20.642;2024-02-15T07:39:23;101488.97;;;4.31;63.89
75940;BME280;75809;44.872;20.642;2024-02-15T07:41:51;101481.88;;;4.39;63.82
75940;BME280;75809;44.872;20.642;2024-02-15T07:44:16;101478.38;;;4.40;63.77
75940;BME280;75809;44.872;20.642;2024-02-15T07:46:42;101475.72;;;4.43;63.71
75940;BME280;75809;44.872;20.642;2024-02-15T07:49:08;101476.50;;;4.48;63.65
75940;BME280;75809;44.872;20.642;2024-02-15T07:51:34;101480.78;;;4.54;63.75
75940;BME280;75809;44.872;20.642;2024-02-15T07:53:59;101476.31;;;4.60;63.25
75940;BME280;75809;44.872;20.642;2024-02-15T07:56:26;101483.28;;;4.61;63.49
75940;BME280;75809;44.872;20.642;2024-02-15T07:58:52;101477.06;;;4.69;63.50
75940;BME280;75809;44.872;20.642;2024-02-15T08:01:18;101469.22;;;4.69;63.87
75940;BME280;75809;44.872;20.642;2024-02-15T08:03:46;101474.31;;;4.75;64.24
75940;BME280;75809;44.872;20.642;2024-02-15T08:06:13;101476.78;;;4.84;64.13
75940;BME280;75809;44.872;20.642;2024-02-15T08:08:40;101481.91;;;4.91;64.29
75940;BME280;75809;44.872;20.642;2024-02-15T08:11:11;101486.91;;;5.04;64.08
75940;BME280;75809;44.872;20.642;2024-02-15T08:16:17;101473.25;;;5.34;63.50
75940;BME280;75809;44.872;20.642;2024-02-15T08:18:44;101470.47;;;5.43;63.06
75940;BME280;75809;44.872;20.642;2024-02-15T08:21:09;101475.50;;;5.52;62.55
75940;BME280;75809;44.872;20.642;2024-02-15T08:23:36;101477.03;;;5.63;62.79
75940;BME280;75809;44.872;20.642;2024-02-15T08:26:01;101471.53;;;5.76;62.51
75940;BME280;75809;44.872;20.642;2024-02-15T08:28:27;101461.63;;;5.91;62.04
75940;BME280;75809;44.872;20.642;2024-02-15T08:30:56;101460.38;;;6.08;61.59
75940;BME280;75809;44.872;20.642;2024-02-15T08:33:23;101471.44;;;6.21;60.84
75940;BME280;75809;44.872;20.642;2024-02-15T08:35:49;101464.19;;;6.32;60.16
75940;BME280;75809;44.872;20.642;2024-02-15T08:38:14;101472.47;;;6.51;60.26
75940;BME280;75809;44.872;20.642;2024-02-15T08:40:40;101471.31;;;6.63;60.21
75940;BME280;75809;44.872;20.642;2024-02-15T08:43:05;101471.00;;;6.75;59.50
75940;BME280;75809;44.872;20.642;2024-02-15T08:45:31;101475.97;;;6.86;59.41
75940;BME280;75809;44.872;20.642;2024-02-15T08:47:57;101480.16;;;6.94;58.53
75940;BME280;75809;44.872;20.642;2024-02-15T08:50:22;101477.34;;;7.01;58.69
75940;BME280;75809;44.872;20.642;2024-02-15T08:52:49;101477.91;;;7.12;58.02
75940;BME280;75809;44.872;20.642;2024-02-15T08:55:15;101476.81;;;7.20;58.96
75940;BME280;75809;44.872;20.642;2024-02-15T08:57:42;101474.81;;;7.30;57.92
75940;BME280;75809;44.872;20.642;2024-02-15T09:00:10;101479.81;;;7.39;58.05
75940;BME280;75809;44.872;20.642;2024-02-15T09:02:47;101483.84;;;7.51;58.07
75940;BME280;75809;44.872;20.642;2024-02-15T09:05:14;101486.34;;;7.57;57.68
75940;BME280;75809;44.872;20.642;2024-02-15T09:07:43;101480.03;;;7.63;57.13
75940;BME280;75809;44.872;20.642;2024-02-15T09:10:09;101477.88;;;7.75;56.83
75940;BME280;75809;44.872;20.642;2024-02-15T09:12:39;101478.44;;;7.87;56.90
75940;BME280;75809;44.872;20.642;2024-02-15T09:15:09;101486.25;;;7.90;56.40
75940;BME280;75809;44.872;20.642;2024-02-15T09:17:36;101478.22;;;7.94;56.20
75940;BME280;75809;44.872;20.642;2024-02-15T09:22:32;101472.78;;;8.00;55.97
75940;BME280;75809;44.872;20.642;2024-02-15T09:24:57;101466.41;;;8.07;56.94
75940;BME280;75809;44.872;20.642;2024-02-15T09:27:23;101467.03;;;8.16;56.03
75940;BME280;75809;44.872;20.642;2024-02-15T09:29:48;101463.38;;;8.21;55.70
75940;BME280;75809;44.872;20.642;2024-02-15T09:32:14;101461.34;;;8.29;55.84
75940;BME280;75809;44.872;20.642;2024-02-15T09:34:40;101462.97;;;8.35;55.51
75940;BME280;75809;44.872;20.642;2024-02-15T09:37:05;101468.03;;;8.41;55.48
75940;BME280;75809;44.872;20.642;2024-02-15T09:39:31;101465.19;;;8.47;55.25
75940;BME280;75809;44.872;20.642;2024-02-15T09:41:57;101464.09;;;8.54;54.95
75940;BME280;75809;44.872;20.642;2024-02-15T09:44:25;101464.44;;;8.70;54.53
75940;BME280;75809;44.872;20.642;2024-02-15T09:47:04;101464.00;;;8.84;54.10
75940;BME280;75809;44.872;20.642;2024-02-15T09:49:35;101461.94;;;8.92;54.25
75940;BME280;75809;44.872;20.642;2024-02-15T09:52:03;101456.28;;;9.04;53.92
75940;BME280;75809;44.872;20.642;2024-02-15T09:54:30;101455.59;;;9.22;53.70
75940;BME280;75809;44.872;20.642;2024-02-15T09:57:01;101458.50;;;9.40;52.85
75940;BME280;75809;44.872;20.642;2024-02-15T09:59:26;101452.31;;;9.64;50.96
75940;BME280;75809;44.872;20.642;2024-02-15T10:01:58;101460.81;;;9.72;50.28
75940;BME280;75809;44.872;20.642;2024-02-15T10:04:24;101453.81;;;9.71;50.30
75940;BME280;75809;44.872;20.642;2024-02-15T10:06:51;101457.59;;;9.64;49.65
75940;BME280;75809;44.872;20.642;2024-02-15T10:09:31;101443.13;;;9.74;50.36
75940;BME280;75809;44.872;20.642;2024-02-15T10:11:59;101440.81;;;9.89;49.85
75940;BME280;75809;44.872;20.642;2024-02-15T10:14:26;101440.59;;;9.95;49.27
75940;BME280;75809;44.872;20.642;2024-02-15T10:16:53;101448.31;;;9.99;49.56
75940;BME280;75809;44.872;20.642;2024-02-15T10:19:22;101447.94;;;9.86;49.77
75940;BME280;75809;44.872;20.642;2024-02-15T10:21:53;101440.47;;;9.98;49.64
75940;BME280;75809;44.872;20.642;2024-02-15T10:24:23;101437.47;;;10.07;49.62
75940;BME280;75809;44.872;20.642;2024-02-15T10:27:00;101441.13;;;10.26;49.15
75940;BME280;75809;44.872;20.642;2024-02-15T10:29:38;101438.13;;;10.35;49.34
75940;BME280;75809;44.872;20.642;2024-02-15T10:32:05;101429.50;;;10.30;49.30
75940;BME280;75809;44.872;20.642;2024-02-15T10:34:43;101420.13;;;10.45;48.63
75940;BME280;75809;44.872;20.642;2024-02-15T10:37:11;101436.78;;;10.47;48.98
75940;BME280;75809;44.872;20.642;2024-02-15T10:39:37;101418.13;;;10.50;48.77
75940;BME280;75809;44.872;20.642;2024-02-15T10:42:06;101424.50;;;10.66;49.11
75940;BME280;75809;44.872;20.642;2024-02-15T10:44:32;101410.44;;;10.66;49.18
75940;BME280;75809;44.872;20.642;2024-02-15T10:46:59;101406.88;;;10.87;48.27
75940;BME280;75809;44.872;20.642;2024-02-15T10:49:31;101400.78;;;11.06;48.24
75940;BME280;75809;44.872;20.642;2024-02-15T10:52:00;101401.13;;;11.18;47.36
75940;BME280;75809;44.872;20.642;2024-02-15T10:54:46;101399.47;;;11.35;47.25
75940;BME280;75809;44.872;20.642;2024-02-15T10:57:12;101385.75;;;11.45;46.34
75940;BME280;75809;44.872;20.642;2024-02-15T10:59:56;101385.41;;;11.53;46.72
75940;BME280;75809;44.872;20.642;2024-02-15T11:02:42;101385.84;;;11.63;46.09
75940;BME280;75809;44.872;20.642;2024-02-15T11:05:10;101388.31;;;11.86;45.83
75940;BME280;75809;44.872;20.642;2024-02-15T11:07:40;101381.63;;;11.96;45.99
75940;BME280;75809;44.872;20.642;2024-02-15T11:10:08;101375.75;;;12.08;45.65
75940;BME280;75809;44.872;20.642;2024-02-15T11:12:36;101375.44;;;12.14;46.23
75940;BME280;75809;44.872;20.642;2024-02-15T11:15:02;101370.16;;;12.32;45.13
75940;BME280;75809;44.872;20.642;2024-02-15T11:20:10;101363.34;;;12.45;44.78
75940;BME280;75809;44.872;20.642;2024-02-15T11:22:56;101359.72;;;12.63;44.44
75940;BME280;75809;44.872;20.642;2024-02-15T11:25:31;101350.38;;;12.73;43.60
75940;BME280;75809;44.872;20.642;2024-02-15T11:30:48;101365.34;;;13.08;43.45
75940;BME280;75809;44.872;20.642;2024-02-15T11:33:33;101361.66;;;13.27;42.90
75940;BME280;75809;44.872;20.642;2024-02-15T11:36:06;101352.09;;;13.25;43.40
75940;BME280;75809;44.872;20.642;2024-02-15T11:38:33;101358.50;;;13.03;42.82
75940;BME280;75809;44.872;20.642;2024-02-15T11:41:08;101347.88;;;12.88;42.89
75940;BME280;75809;44.872;20.642;2024-02-15T11:46:16;101351.28;;;13.40;42.92
75940;BME280;75809;44.872;20.642;2024-02-15T11:48:48;101350.06;;;13.46;42.83
75940;BME280;75809;44.872;20.642;2024-02-15T11:51:36;101346.19;;;13.20;42.65
75940;BME280;75809;44.872;20.642;2024-02-15T11:54:12;101347.22;;;13.49;42.33
75940;BME280;75809;44.872;20.642;2024-02-15T11:59:12;101344.59;;;13.80;41.49
75940;BME280;75809;44.872;20.642;2024-02-15T12:01:54;101338.22;;;13.99;40.90
75940;BME280;75809;44.872;20.642;2024-02-15T12:04:38;101335.31;;;14.33;40.60
75940;BME280;75809;44.872;20.642;2024-02-15T12:07:22;101326.44;;;14.93;39.05
75940;BME280;75809;44.872;20.642;2024-02-15T12:10:07;101324.47;;;15.11;39.10
75940;BME280;75809;44.872;20.642;2024-02-15T12:12:52;101331.06;;;15.46;38.10
75940;BME280;75809;44.872;20.642;2024-02-15T12:15:36;101319.34;;;16.57;36.13
75940;BME280;75809;44.872;20.642;2024-02-15T12:18:20;101315.06;;;17.30;34.94
75940;BME280;75809;44.872;20.642;2024-02-15T12:21:04;101311.22;;;17.34;34.63
75940;BME280;75809;44.872;20.642;2024-02-15T12:23:32;101302.38;;;17.71;34.00
75940;BME280;75809;44.872;20.642;2024-02-15T12:26:00;101313.88;;;18.08;33.35
75940;BME280;75809;44.872;20.642;2024-02-15T12:28:26;101306.66;;;17.60;33.70
75940;BME280;75809;44.872;20.642;2024-02-15T12:30:56;101299.16;;;17.78;33.03
75940;BME280;75809;44.872;20.642;2024-02-15T12:33:25;101290.38;;;18.46;32.18
75940;BME280;75809;44.872;20.642;2024-02-15T12:36:03;101285.63;;;18.85;31.59
75940;BME280;75809;44.872;20.642;2024-02-15T12:38:29;101282.22;;;19.28;31.15
75940;BME280;75809;44.872;20.642;2024-02-15T12:40:55;101283.19;;;19.16;31.31
75940;BME280;75809;44.872;20.642;2024-02-15T12:43:22;101283.16;;;19.60;30.76
75940;BME280;75809;44.872;20.642;2024-02-15T12:45:47;101265.75;;;19.21;31.06
75940;BME280;75809;44.872;20.642;2024-02-15T12:48:13;101276.47;;;19.21;30.94
75940;BME280;75809;44.872;20.642;2024-02-15T12:50:41;101272.16;;;19.52;30.81
75940;BME280;75809;44.872;20.642;2024-02-15T12:53:07;101256.59;;;20.21;29.95
75940;BME280;75809;44.872;20.642;2024-02-15T12:55:35;101261.09;;;20.00;30.20
75940;BME280;75809;44.872;20.642;2024-02-15T12:58:02;101258.44;;;19.57;30.64
75940;BME280;75809;44.872;20.642;2024-02-15T13:00:30;101249.19;;;20.14;30.04
75940;BME280;75809;44.872;20.642;2024-02-15T13:03:03;101252.41;;;19.64;30.76
75940;BME280;75809;44.872;20.642;2024-02-15T13:05:29;101249.91;;;20.37;29.65
75940;BME280;75809;44.872;20.642;2024-02-15T13:07:56;101256.56;;;20.84;29.08